Time;durP1;ratioP1;P1;durP2;ratioP2;P2;SDS_P1;SDS_P2;PMS_P1;PMS_P2;Temp;Humidity;BMP_temperature;BMP_pressure;BME280_temperature;BME280_humidity;BME280_pressure;Samples;Min_cycle;Max_cycle;Signal;HPM_P1;HPM_P2
2023/08/19 00:00:50;;;;;;;8.38;5.90;;;22.70;99.90;;;;;;5106417;27;45150;-78
2023/08/19 00:03:17;;;;;;;7.97;6.25;;;22.60;99.90;;;;;;5106394;27;45154;-78
2023/08/19 00:05:44;;;;;;;9.90;6.43;;;22.30;99.90;;;;;;5106530;27;47030;-77
2023/08/19 00:08:11;;;;;;;7.25;6.05;;;22.10;99.90;;;;;;5106174;27;45069;-77
2023/08/19 00:10:39;;;;;;;11.10;6.28;;;21.90;99.90;;;;;;5106327;27;45164;-78
2023/08/19 00:13:06;;;;;;;7.47;5.63;;;21.80;99.90;;;;;;5097955;27;45205;-77
2023/08/19 00:15:33;;;;;;;3.58;2.97;;;21.80;99.90;;;;;;5099529;27;47452;-72
2023/08/19 00:18:00;;;;;;;4.30;3.40;;;22.00;99.90;;;;;;5092756;27;45150;-72
2023/08/19 00:20:28;;;;;;;4.53;3.30;;;22.20;99.90;;;;;;5093608;27;45175;-72
2023/08/19 00:22:56;;;;;;;4.72;3.22;;;22.40;99.90;;;;;;5102077;27;45130;-72
2023/08/19 00:25:22;;;;;;;4.50;3.40;;;22.50;99.90;;;;;;5087597;27;45440;-72
2023/08/19 00:27:51;;;;;;;5.63;3.42;;;22.50;99.90;;;;;;5090170;27;45338;-72
2023/08/19 00:30:18;;;;;;;4.43;3.38;;;22.60;99.90;;;;;;5094956;27;45196;-72
2023/08/19 00:32:45;;;;;;;3.20;2.90;;;22.70;99.90;;;;;;5084217;27;45296;-73
2023/08/19 00:35:12;;;;;;;4.30;3.50;;;22.70;99.90;;;;;;5087761;27;47453;-74
2023/08/19 00:37:39;;;;;;;3.90;3.08;;;22.70;99.90;;;;;;5085634;27;45276;-74
2023/08/19 00:40:07;;;;;;;3.78;2.97;;;22.70;99.90;;;;;;5090016;27;45347;-74
2023/08/19 00:42:33;;;;;;;3.83;2.80;;;22.70;99.90;;;;;;5089556;27;45271;-75
2023/08/19 00:45:02;;;;;;;4.07;3.15;;;22.80;99.90;;;;;;5088895;27;47299;-75
2023/08/19 00:47:29;;;;;;;3.63;3.10;;;22.80;99.90;;;;;;5089188;27;46129;-75
2023/08/19 00:49:56;;;;;;;3.38;3.08;;;22.70;99.90;;;;;;5092116;27;45147;-76
2023/08/19 00:52:24;;;;;;;4.60;3.10;;;22.80;99.90;;;;;;5089246;27;45252;-76
2023/08/19 00:54:51;;;;;;;3.85;3.38;;;22.80;99.90;;;;;;5094165;27;46197;-76
2023/08/19 00:57:18;;;;;;;3.80;3.10;;;22.70;99.90;;;;;;5093264;27;45253;-76
2023/08/19 00:59:45;;;;;;;4.03;2.90;;;22.70;99.90;;;;;;5095008;27;45260;-76
2023/08/19 01:02:14;;;;;;;3.50;3.20;;;22.70;99.90;;;;;;5104076;27;45353;-76
2023/08/19 01:04:41;;;;;;;3.13;2.83;;;22.70;99.90;;;;;;5095425;27;45235;-76
2023/08/19 01:07:16;;;;;;;3.45;3.15;;;22.70;99.90;;;;;;5092043;27;45301;-76
2023/08/19 01:09:48;;;;;;;3.65;3.05;;;22.70;99.90;;;;;;5096449;27;45146;-77
2023/08/19 01:12:24;;;;;;;3.88;3.00;;;22.70;99.90;;;;;;5104065;27;45345;-77
2023/08/19 01:14:59;;;;;;;3.08;2.80;;;22.70;99.90;;;;;;5104321;27;47214;-77
2023/08/19 01:17:30;;;;;;;4.25;2.75;;;22.70;99.90;;;;;;5101133;27;45357;-77
2023/08/19 01:19:58;;;;;;;4.40;3.20;;;22.70;99.90;;;;;;5104646;27;45374;-77
2023/08/19 01:22:33;;;;;;;3.47;3.17;;;22.70;99.90;;;;;;5104861;27;45225;-78
2023/08/19 01:25:03;;;;;;;3.67;3.13;;;22.70;99.90;;;;;;5104412;27;46387;-77
2023/08/19 01:27:30;;;;;;;4.82;4.22;;;22.70;99.90;;;;;;5106175;27;45783;-77
2023/08/19 01:29:57;;;;;;;6.20;4.35;;;22.70;99.90;;;;;;5108873;27;45379;-77
2023/08/19 01:32:24;;;;;;;9.20;4.93;;;22.70;99.90;;;;;;5109033;27;45144;-78
2023/08/19 01:34:53;;;;;;;10.15;5.07;;;22.60;99.90;;;;;;5100251;27;48599;-77
2023/08/19 01:37:26;;;;;;;9.57;4.88;;;22.60;99.90;;;;;;5108584;27;45199;-77
2023/08/19 01:39:56;;;;;;;9.20;4.88;;;22.60;99.90;;;;;;5109027;27;45184;-77
2023/08/19 01:42:25;;;;;;;10.23;4.88;;;22.60;99.90;;;;;;5109395;27;45271;-77
2023/08/19 01:44:53;;;;;;;6.57;4.38;;;22.60;99.90;;;;;;5108437;27;47997;-77
2023/08/19 01:47:20;;;;;;;7.93;4.75;;;22.50;99.90;;;;;;5108202;27;45187;-78
2023/08/19 01:49:47;;;;;;;6.90;4.53;;;22.60;99.90;;;;;;5108059;27;45042;-78
2023/08/19 01:52:15;;;;;;;8.98;4.57;;;22.50;99.90;;;;;;5098609;27;45367;-72
2023/08/19 01:54:42;;;;;;;5.45;4.10;;;22.50;99.90;;;;;;5088959;27;46257;-72
2023/08/19 01:57:09;;;;;;;6.78;4.68;;;22.50;99.90;;;;;;5085775;27;45329;-72
2023/08/19 01:59:37;;;;;;;10.45;4.55;;;22.50;99.90;;;;;;5093042;27;45102;-73
2023/08/19 02:02:04;;;;;;;8.40;4.70;;;22.50;99.90;;;;;;5093882;27;45509;-73
2023/08/19 02:04:31;;;;;;;8.07;4.55;;;22.60;99.90;;;;;;5097041;27;46583;-74
2023/08/19 02:06:58;;;;;;;8.80;4.53;;;22.60;99.90;;;;;;5093173;27;45106;-75
2023/08/19 02:09:25;;;;;;;6.90;4.57;;;22.50;99.90;;;;;;5091677;27;45153;-75
2023/08/19 02:11:52;;;;;;;9.32;4.80;;;22.50;99.90;;;;;;5084912;27;45300;-75
2023/08/19 02:14:18;;;;;;;5.93;4.43;;;22.50;99.90;;;;;;5094138;27;45155;-76
2023/08/19 02:16:47;;;;;;;7.63;4.55;;;22.50;99.90;;;;;;5104829;27;45276;-76
2023/08/19 02:19:13;;;;;;;8.25;4.60;;;22.50;99.90;;;;;;5098488;27;45253;-76
2023/08/19 02:21:40;;;;;;;5.57;4.05;;;22.50;99.90;;;;;;5106473;27;45312;-76
2023/08/19 02:24:08;;;;;;;6.60;4.30;;;22.50;99.90;;;;;;5106982;27;46503;-76
2023/08/19 02:26:34;;;;;;;7.60;4.43;;;22.50;99.90;;;;;;5106845;27;45105;-76
2023/08/19 02:29:01;;;;;;;8.25;4.45;;;22.50;99.90;;;;;;5110102;27;45393;-76
2023/08/19 02:31:28;;;;;;;7.30;4.40;;;22.50;99.90;;;;;;5106289;27;45479;-76
2023/08/19 02:33:55;;;;;;;9.10;4.65;;;22.50;99.90;;;;;;5104321;27;47300;-77
2023/08/19 02:36:23;;;;;;;9.35;4.60;;;22.50;99.90;;;;;;5101330;27;45102;-76
2023/08/19 02:38:50;;;;;;;8.38;4.30;;;22.50;99.90;;;;;;5103618;27;45222;-76
2023/08/19 02:41:17;;;;;;;8.18;4.22;;;22.50;99.90;;;;;;5107126;27;45123;-76
2023/08/19 02:43:43;;;;;;;6.93;3.83;;;22.50;99.90;;;;;;5098416;27;46757;-77
2023/08/19 02:46:10;;;;;;;6.20;3.65;;;22.50;99.90;;;;;;5106651;27;45434;-77
2023/08/19 02:48:37;;;;;;;7.10;4.10;;;22.50;99.90;;;;;;5107236;27;45012;-77
2023/08/19 02:51:06;;;;;;;6.63;4.28;;;22.50;99.90;;;;;;5107520;27;45229;-77
2023/08/19 02:53:33;;;;;;;5.32;4.30;;;22.50;99.90;;;;;;5102737;27;45258;-77
2023/08/19 02:55:59;;;;;;;9.50;5.15;;;22.50;99.90;;;;;;5107160;27;45648;-77
2023/08/19 02:58:27;;;;;;;7.78;4.40;;;22.50;99.90;;;;;;5107780;27;45101;-78
2023/08/19 03:00:53;;;;;;;6.88;3.80;;;22.50;99.90;;;;;;5107673;27;45430;-78
2023/08/19 03:03:20;;;;;;;5.82;3.65;;;22.50;99.90;;;;;;5107640;27;48117;-78
2023/08/19 03:05:47;;;;;;;6.28;4.20;;;22.50;99.90;;;;;;5107417;27;45203;-78
2023/08/19 03:08:15;;;;;;;8.35;4.10;;;22.50;99.90;;;;;;5109697;27;45093;-78
2023/08/19 03:10:42;;;;;;;8.07;4.03;;;22.50;99.90;;;;;;5107961;27;45114;-78
2023/08/19 03:13:09;;;;;;;7.65;4.22;;;22.40;99.90;;;;;;5107215;27;46799;-78
2023/08/19 03:15:38;;;;;;;6.82;3.90;;;22.40;99.90;;;;;;5107464;27;45216;-78
2023/08/19 03:18:06;;;;;;;8.02;3.92;;;22.40;99.90;;;;;;5107560;27;45103;-78
2023/08/19 03:20:33;;;;;;;9.13;3.90;;;22.40;99.90;;;;;;5107446;27;45302;-78
2023/08/19 03:22:59;;;;;;;7.70;3.70;;;22.40;99.90;;;;;;5105207;27;47029;-78
2023/08/19 03:25:28;;;;;;;5.50;3.60;;;22.40;99.90;;;;;;5101357;27;45043;-78
2023/08/19 03:27:54;;;;;;;8.07;3.88;;;22.50;99.90;;;;;;5107510;27;45113;-78
2023/08/19 03:30:21;;;;;;;10.45;3.60;;;22.50;99.90;;;;;;5107840;27;44994;-78
2023/08/19 03:32:48;;;;;;;9.32;3.80;;;22.50;99.90;;;;;;5107452;27;45526;-78
2023/08/19 03:35:15;;;;;;;6.28;3.75;;;22.50;99.90;;;;;;5107225;27;45228;-78
2023/08/19 03:37:41;;;;;;;7.38;3.65;;;22.50;99.90;;;;;;5102033;27;45287;-78
2023/08/19 03:40:10;;;;;;;6.80;4.07;;;22.50;99.90;;;;;;5106995;27;45322;-78
2023/08/19 03:42:38;;;;;;;8.40;4.18;;;22.50;99.90;;;;;;5100080;27;45595;-78
2023/08/19 03:45:06;;;;;;;5.65;3.78;;;22.50;99.90;;;;;;5089882;27;45042;-78
2023/08/19 03:47:33;;;;;;;9.85;3.55;;;22.50;99.90;;;;;;5107598;27;45076;-78
2023/08/19 03:50:00;;;;;;;6.07;3.35;;;22.50;99.90;;;;;;5105758;27;45093;-78
2023/08/19 03:52:26;;;;;;;6.90;4.25;;;22.50;99.90;;;;;;5106983;27;46648;-78
2023/08/19 03:54:53;;;;;;;6.60;3.03;;;22.40;99.90;;;;;;5107254;27;45208;-78
2023/08/19 03:57:20;;;;;;;6.75;3.60;;;22.50;99.90;;;;;;5107296;27;45099;-78
2023/08/19 03:59:51;;;;;;;7.57;3.88;;;22.50;99.90;;;;;;5109564;27;45256;-79
2023/08/19 04:02:18;;;;;;;7.68;3.33;;;22.40;99.90;;;;;;5107440;27;47918;-78
2023/08/19 04:04:58;;;;;;;5.43;3.33;;;22.40;99.90;;;;;;5107212;27;45143;-78
2023/08/19 04:07:24;;;;;;;5.82;3.58;;;22.40;99.90;;;;;;5106985;27;45201;-78
2023/08/19 04:09:51;;;;;;;9.63;3.90;;;22.40;99.90;;;;;;5107159;27;45357;-78
2023/08/19 04:12:18;;;;;;;8.85;3.67;;;22.40;99.90;;;;;;5106934;27;47890;-78
2023/08/19 04:14:45;;;;;;;6.13;3.65;;;22.40;99.90;;;;;;5107124;27;45082;-78
2023/08/19 04:17:13;;;;;;;7.38;3.58;;;22.40;99.90;;;;;;5090108;27;45146;-78
2023/08/19 04:19:40;;;;;;;6.25;3.63;;;22.40;99.90;;;;;;5107337;27;45215;-78
2023/08/19 04:22:06;;;;;;;11.05;3.70;;;22.40;99.90;;;;;;5095471;27;47258;-78
2023/08/19 04:24:33;;;;;;;6.60;3.90;;;22.40;99.90;;;;;;5101580;27;45060;-78
2023/08/19 04:27:02;;;;;;;7.43;4.05;;;22.40;99.90;;;;;;5094383;27;44936;-79
2023/08/19 04:29:29;;;;;;;6.78;3.55;;;22.40;99.90;;;;;;5107146;27;45362;-79
2023/08/19 04:31:55;;;;;;;6.82;3.38;;;22.40;99.90;;;;;;5106693;27;46362;-79
2023/08/19 04:34:24;;;;;;;7.70;3.70;;;22.40;99.90;;;;;;5106928;27;45081;-79
2023/08/19 04:36:50;;;;;;;8.30;3.78;;;22.40;99.90;;;;;;5107074;27;45093;-78
2023/08/19 04:39:17;;;;;;;6.38;3.47;;;22.40;99.90;;;;;;5106549;27;45352;-79
2023/08/19 04:41:44;;;;;;;5.53;3.53;;;22.40;99.90;;;;;;5106695;27;47295;-79
2023/08/19 04:44:11;;;;;;;9.23;3.38;;;22.40;99.90;;;;;;5106644;27;45561;-78
2023/08/19 04:46:37;;;;;;;5.53;3.47;;;22.40;99.90;;;;;;5106704;27;45059;-78
2023/08/19 04:49:05;;;;;;;6.13;3.50;;;22.40;99.90;;;;;;5106324;27;45216;-78
2023/08/19 04:51:33;;;;;;;7.25;3.08;;;22.40;99.90;;;;;;5108714;27;46282;-78
2023/08/19 04:54:00;;;;;;;6.88;3.40;;;22.50;99.90;;;;;;5106298;27;45182;-79
2023/08/19 04:56:27;;;;;;;3.60;2.97;;;22.50;99.90;;;;;;5106707;27;45074;-78
2023/08/19 04:58:55;;;;;;;4.68;2.90;;;22.40;99.90;;;;;;5106904;27;45195;-78
2023/08/19 05:01:21;;;;;;;6.03;3.08;;;22.40;99.90;;;;;;5105969;27;45116;-78
2023/08/19 05:03:48;;;;;;;4.72;2.95;;;22.50;99.90;;;;;;5106037;27;45111;-78
2023/08/19 05:06:15;;;;;;;7.28;3.35;;;22.50;99.90;;;;;;5106310;27;45094;-78
2023/08/19 05:08:43;;;;;;;8.43;3.45;;;22.50;99.90;;;;;;5106552;27;45078;-79
2023/08/19 05:11:10;;;;;;;6.28;3.05;;;22.50;99.90;;;;;;5106204;27;46359;-79
2023/08/19 05:13:37;;;;;;;6.50;3.33;;;22.50;99.90;;;;;;5106065;27;45333;-78
2023/08/19 05:16:04;;;;;;;8.55;3.17;;;22.50;99.90;;;;;;5106316;27;45080;-78
2023/08/19 05:18:31;;;;;;;4.45;2.83;;;22.50;99.90;;;;;;5106184;27;45212;-78
2023/08/19 05:20:58;;;;;;;3.67;2.80;;;22.50;99.90;;;;;;5095992;27;46297;-78
2023/08/19 05:23:24;;;;;;;6.70;3.22;;;22.50;99.90;;;;;;5091253;27;45198;-78
2023/08/19 05:25:53;;;;;;;4.30;2.80;;;22.50;99.90;;;;;;5105843;27;45189;-78
2023/08/19 05:28:19;;;;;;;4.95;2.75;;;22.50;99.90;;;;;;5097396;27;45145;-78
2023/08/19 05:30:46;;;;;;;3.50;3.20;;;22.50;99.90;;;;;;5105444;27;46292;-78
2023/08/19 05:33:13;;;;;;;6.85;2.70;;;22.50;99.90;;;;;;5101797;27;45575;-78
2023/08/19 05:35:40;;;;;;;3.05;2.75;;;22.50;99.90;;;;;;5093813;27;45091;-78
2023/08/19 05:38:06;;;;;;;5.63;2.50;;;22.50;99.90;;;;;;5106192;27;45401;-78
2023/08/19 05:40:33;;;;;;;3.88;2.97;;;22.50;99.90;;;;;;5105216;27;47501;-79
2023/08/19 05:43:01;;;;;;;4.53;2.75;;;22.50;99.90;;;;;;5107850;27;45034;-78
2023/08/19 05:45:28;;;;;;;5.80;2.70;;;22.50;99.90;;;;;;5105689;27;45039;-78
2023/08/19 05:47:55;;;;;;;6.32;2.92;;;22.50;99.90;;;;;;5105004;27;45032;-78
2023/08/19 05:50:22;;;;;;;4.07;2.58;;;22.50;99.90;;;;;;5104977;27;45248;-78
2023/08/19 05:52:49;;;;;;;5.75;2.75;;;22.50;99.90;;;;;;5093132;27;45220;-72
2023/08/19 05:55:16;;;;;;;8.18;3.03;;;22.50;99.90;;;;;;5090417;27;45321;-72
2023/08/19 05:57:44;;;;;;;5.32;2.78;;;22.50;99.90;;;;;;5082361;27;45320;-73
2023/08/19 06:00:13;;;;;;;4.50;2.58;;;22.50;99.90;;;;;;5088261;27;45184;-74
2023/08/19 06:02:40;;;;;;;5.05;2.95;;;22.50;99.90;;;;;;5086151;27;45413;-74
2023/08/19 06:05:07;;;;;;;4.55;2.90;;;22.50;99.90;;;;;;5085939;27;45146;-74
2023/08/19 06:07:34;;;;;;;4.28;2.75;;;22.50;99.90;;;;;;5087699;27;45054;-74
2023/08/19 06:10:01;;;;;;;5.72;3.13;;;22.50;99.90;;;;;;5090278;27;47328;-75
2023/08/19 06:12:28;;;;;;;7.32;2.85;;;22.50;99.90;;;;;;5087464;27;45155;-75
2023/08/19 06:14:54;;;;;;;5.03;2.60;;;22.50;99.90;;;;;;5098197;27;45387;-70
2023/08/19 06:17:22;;;;;;;5.07;2.58;;;22.60;99.90;;;;;;5093920;27;45236;-71
2023/08/19 06:19:49;;;;;;;7.22;2.92;;;22.60;99.90;;;;;;5101509;27;46253;-72
2023/08/19 06:22:16;;;;;;;3.55;2.83;;;22.60;99.90;;;;;;5096044;27;45267;-72
2023/08/19 06:24:42;;;;;;;4.55;3.03;;;22.60;99.90;;;;;;5101543;27;45177;-72
2023/08/19 06:27:09;;;;;;;4.15;2.55;;;22.60;99.90;;;;;;5093779;27;45328;-72
2023/08/19 06:29:36;;;;;;;4.90;2.70;;;22.60;99.90;;;;;;5094503;27;46050;-72
2023/08/19 06:32:04;;;;;;;5.43;2.90;;;22.60;99.90;;;;;;5097480;27;45921;-72
2023/08/19 06:34:33;;;;;;;5.35;2.80;;;22.60;99.90;;;;;;5097441;27;45227;-73
2023/08/19 06:37:01;;;;;;;3.38;2.45;;;22.60;99.90;;;;;;5098497;27;45233;-74
2023/08/19 06:39:29;;;;;;;3.58;2.58;;;22.60;99.90;;;;;;5098609;27;47632;-74
2023/08/19 06:42:01;;;;;;;5.45;2.90;;;22.60;99.90;;;;;;5088412;27;46143;-74
2023/08/19 06:44:30;;;;;;;4.88;2.40;;;22.70;99.90;;;;;;5098215;27;45164;-75
2023/08/19 06:46:58;;;;;;;3.20;2.58;;;22.70;99.90;;;;;;5091649;27;45183;-75
2023/08/19 06:49:25;;;;;;;6.20;2.97;;;22.70;99.90;;;;;;5084822;27;47447;-75
2023/08/19 06:51:54;;;;;;;5.80;3.10;;;22.70;99.90;;;;;;5096494;27;45232;-76
2023/08/19 06:54:22;;;;;;;3.72;2.97;;;22.70;99.90;;;;;;5099857;27;45214;-76
2023/08/19 06:56:51;;;;;;;3.17;2.55;;;22.70;99.90;;;;;;5098710;27;45240;-76
2023/08/19 06:59:24;;;;;;;3.25;2.25;;;22.70;99.90;;;;;;5096431;27;47955;-76
2023/08/19 07:01:53;;;;;;;3.95;2.30;;;22.70;99.90;;;;;;5098246;27;45598;-72
2023/08/19 07:04:22;;;;;;;3.97;2.50;;;22.70;99.90;;;;;;5086585;27;45439;-72
2023/08/19 07:06:50;;;;;;;5.88;2.47;;;22.70;99.90;;;;;;5081222;27;45276;-72
2023/08/19 07:09:22;;;;;;;5.13;2.47;;;22.70;99.90;;;;;;5091015;27;47147;-73
2023/08/19 07:11:50;;;;;;;4.13;2.40;;;22.70;99.90;;;;;;5088235;27;45323;-74
2023/08/19 07:14:17;;;;;;;4.53;2.50;;;22.70;99.90;;;;;;5099772;27;45256;-74
2023/08/19 07:16:44;;;;;;;6.47;2.88;;;22.70;99.90;;;;;;5101364;27;45151;-74
2023/08/19 07:19:14;;;;;;;4.72;2.50;;;22.80;99.90;;;;;;5092256;27;46420;-75
2023/08/19 07:21:42;;;;;;;4.55;2.67;;;22.70;99.90;;;;;;5091982;27;45383;-75
2023/08/19 07:24:10;;;;;;;3.38;2.60;;;22.80;99.90;;;;;;5088087;27;45277;-75
2023/08/19 07:26:39;;;;;;;4.10;2.35;;;22.80;99.90;;;;;;5095062;27;45101;-75
2023/08/19 07:29:07;;;;;;;7.25;2.75;;;22.80;99.90;;;;;;5092479;27;47974;-75
2023/08/19 07:31:34;;;;;;;7.90;2.45;;;22.80;99.90;;;;;;5090817;27;45125;-76
2023/08/19 07:34:01;;;;;;;6.28;2.75;;;22.80;99.90;;;;;;5096961;27;45292;-76
2023/08/19 07:36:28;;;;;;;6.47;2.55;;;22.80;99.90;;;;;;5094957;27;45349;-76
2023/08/19 07:38:55;;;;;;;2.75;2.20;;;22.80;99.90;;;;;;5102527;27;46273;-76
2023/08/19 07:41:21;;;;;;;1.95;1.75;;;22.80;99.90;;;;;;5102556;27;45300;-76
2023/08/19 07:43:50;;;;;;;3.67;2.00;;;22.80;99.90;;;;;;5097846;27;45223;-76
2023/08/19 07:46:17;;;;;;;2.40;1.88;;;22.80;99.90;;;;;;5101517;27;45143;-76
2023/08/19 07:48:44;;;;;;;2.75;1.95;;;22.80;99.90;;;;;;5093009;27;48253;-76
2023/08/19 07:51:11;;;;;;;4.43;2.10;;;22.80;99.90;;;;;;5105168;27;45102;-77
2023/08/19 07:53:37;;;;;;;5.57;1.95;;;22.90;99.90;;;;;;5097205;27;45161;-77
2023/08/19 07:56:05;;;;;;;3.80;2.10;;;22.90;99.90;;;;;;5105958;27;45031;-77
2023/08/19 07:58:32;;;;;;;2.33;1.77;;;22.80;99.90;;;;;;5104686;27;45571;-77
2023/08/19 08:01:00;;;;;;;6.20;2.08;;;22.80;99.90;;;;;;5104106;27;45231;-77
2023/08/19 08:03:27;;;;;;;3.15;2.22;;;22.90;99.90;;;;;;5090685;27;45086;-77
2023/08/19 08:05:54;;;;;;;3.58;2.20;;;22.90;99.90;;;;;;5105933;27;45391;-77
2023/08/19 08:08:21;;;;;;;5.18;2.10;;;22.90;99.90;;;;;;5101494;27;48329;-77
2023/08/19 08:10:47;;;;;;;3.08;2.08;;;22.90;99.90;;;;;;5101820;27;45148;-77
2023/08/19 08:13:14;;;;;;;3.55;2.08;;;22.80;99.90;;;;;;5097370;27;45240;-77
2023/08/19 08:15:41;;;;;;;4.45;2.30;;;22.80;99.90;;;;;;5101689;27;45088;-77
2023/08/19 08:18:10;;;;;;;2.58;2.28;;;22.80;99.90;;;;;;5106985;27;46621;-77
2023/08/19 08:20:38;;;;;;;3.28;2.22;;;22.70;99.90;;;;;;5100411;27;45107;-77
2023/08/19 08:23:05;;;;;;;2.97;1.88;;;22.80;99.90;;;;;;5095177;27;45231;-77
2023/08/19 08:25:32;;;;;;;2.22;1.80;;;22.80;99.90;;;;;;5091826;27;45054;-77
2023/08/19 08:27:59;;;;;;;3.22;2.08;;;22.80;99.90;;;;;;5106331;27;45410;-77
2023/08/19 08:30:26;;;;;;;2.47;1.98;;;22.80;99.90;;;;;;5105950;27;45090;-77
2023/08/19 08:32:52;;;;;;;2.50;1.90;;;22.80;99.90;;;;;;5105804;27;45059;-77
2023/08/19 08:35:20;;;;;;;3.63;2.13;;;22.80;99.90;;;;;;5097919;27;45091;-78
2023/08/19 08:37:47;;;;;;;2.45;1.77;;;22.80;99.90;;;;;;5105021;27;48111;-77
2023/08/19 08:40:14;;;;;;;1.70;1.48;;;22.80;99.90;;;;;;5105533;27;45086;-77
2023/08/19 08:42:42;;;;;;;2.33;1.70;;;22.80;99.90;;;;;;5105657;27;45127;-77
2023/08/19 08:45:10;;;;;;;2.63;1.95;;;22.80;99.90;;;;;;5089113;27;44999;-77
2023/08/19 08:47:39;;;;;;;2.83;1.90;;;22.80;99.90;;;;;;5105772;27;45300;-77
2023/08/19 08:50:07;;;;;;;2.75;2.33;;;22.80;99.90;;;;;;5105602;27;45156;-78
2023/08/19 08:52:36;;;;;;;2.47;1.90;;;22.80;99.90;;;;;;5106085;27;45193;-78
2023/08/19 08:55:04;;;;;;;2.15;1.92;;;22.80;99.90;;;;;;5103985;27;45185;-78
2023/08/19 08:57:30;;;;;;;1.85;1.58;;;22.80;99.90;;;;;;5094205;27;47890;-77
2023/08/19 08:59:57;;;;;;;1.90;1.70;;;22.90;99.90;;;;;;5104925;27;45288;-78
2023/08/19 09:02:26;;;;;;;2.35;1.80;;;22.90;99.90;;;;;;5089983;27;45090;-78
2023/08/19 09:04:53;;;;;;;2.10;1.80;;;22.90;99.90;;;;;;5106218;27;45208;-78
2023/08/19 09:07:26;;;;;;;2.78;2.22;;;22.90;99.90;;;;;;5105440;27;48146;-78
2023/08/19 09:09:56;;;;;;;2.58;1.83;;;22.80;99.90;;;;;;5107799;27;45202;-77
2023/08/19 09:12:24;;;;;;;2.17;1.70;;;22.90;99.90;;;;;;5105616;27;45104;-77
2023/08/19 09:14:56;;;;;;;4.45;1.75;;;22.90;99.90;;;;;;5105946;27;45061;-78
2023/08/19 09:17:23;;;;;;;2.58;1.90;;;22.90;99.90;;;;;;5105544;27;47539;-78
2023/08/19 09:19:50;;;;;;;1.80;1.65;;;22.90;99.90;;;;;;5105386;27;45738;-78
2023/08/19 09:22:21;;;;;;;2.35;1.58;;;22.90;99.90;;;;;;5097116;27;45103;-78
2023/08/19 09:24:48;;;;;;;2.08;1.88;;;22.90;99.90;;;;;;5105825;27;45167;-78
2023/08/19 09:27:26;;;;;;;2.33;1.60;;;22.90;99.90;;;;;;5105189;27;46234;-78
2023/08/19 09:29:53;;;;;;;2.28;1.65;;;22.90;99.90;;;;;;5105721;27;45189;-77
2023/08/19 09:32:27;;;;;;;1.90;1.45;;;22.90;99.90;;;;;;5105262;27;45066;-78
2023/08/19 09:35:02;;;;;;;2.53;1.38;;;22.90;99.90;;;;;;5105834;27;45413;-78
2023/08/19 09:37:29;;;;;;;1.90;1.70;;;22.90;99.90;;;;;;5105556;27;46270;-78
2023/08/19 09:39:56;;;;;;;2.65;1.70;;;22.90;99.90;;;;;;5105144;27;45140;-78
2023/08/19 09:42:24;;;;;;;2.25;1.50;;;22.90;99.90;;;;;;5104984;27;45308;-78
2023/08/19 09:44:51;;;;;;;2.58;1.77;;;22.90;99.90;;;;;;5105573;27;45106;-78
2023/08/19 09:47:19;;;;;;;3.10;1.80;;;22.90;99.90;;;;;;5104780;27;47747;-78
2023/08/19 09:49:46;;;;;;;1.85;1.40;;;22.90;99.90;;;;;;5106863;27;46045;-78
2023/08/19 09:52:17;;;;;;;2.10;1.88;;;22.90;99.90;;;;;;5109179;27;45019;-78
2023/08/19 09:54:51;;;;;;;2.45;1.77;;;22.90;99.90;;;;;;5109091;27;45286;-77
2023/08/19 09:57:19;;;;;;;2.33;1.70;;;22.90;99.90;;;;;;5108990;27;45484;-78
2023/08/19 09:59:47;;;;;;;3.40;2.08;;;22.90;99.90;;;;;;5111100;27;45064;-78
2023/08/19 10:02:16;;;;;;;2.03;1.70;;;22.90;99.90;;;;;;5108420;27;45167;-78
2023/08/19 10:04:43;;;;;;;1.48;1.38;;;22.90;99.90;;;;;;5093184;27;45615;-78
2023/08/19 10:07:15;;;;;;;2.42;1.80;;;22.90;99.90;;;;;;5090658;27;48491;-78
2023/08/19 10:09:42;;;;;;;3.40;2.40;;;22.90;99.90;;;;;;5108010;27;45387;-78
2023/08/19 10:12:11;;;;;;;4.25;3.25;;;22.80;99.90;;;;;;5106189;27;45069;-78
2023/08/19 10:14:39;;;;;;;2.95;2.60;;;22.80;99.90;;;;;;5099234;27;45462;-78
2023/08/19 10:17:08;;;;;;;4.15;2.33;;;22.90;99.90;;;;;;5108219;27;46558;-78
2023/08/19 10:19:43;;;;;;;5.93;3.00;;;22.90;99.90;;;;;;5103497;27;45131;-78
2023/08/19 10:22:11;;;;;;;2.53;2.05;;;23.00;99.90;;;;;;5108686;27;45106;-78
2023/08/19 10:24:39;;;;;;;4.88;2.63;;;23.10;99.90;;;;;;5108517;27;45181;-78
2023/08/19 10:27:06;;;;;;;4.75;3.55;;;23.10;99.90;;;;;;5108157;27;48333;-78
2023/08/19 10:29:32;;;;;;;6.57;3.13;;;23.20;99.90;;;;;;5108272;27;45200;-78
2023/08/19 10:32:30;;;;;;;8.90;4.07;;;23.20;99.90;;;;;;5108401;27;45176;-78
2023/08/19 10:35:08;;;;;;;3.70;2.70;;;23.20;99.90;;;;;;5099398;27;45093;-78
2023/08/19 10:37:36;;;;;;;4.40;3.20;;;23.20;99.90;;;;;;5102254;27;45695;-78
2023/08/19 10:40:08;;;;;;;3.40;3.10;;;23.30;99.90;;;;;;5108150;27;45148;-78
2023/08/19 10:42:35;;;;;;;6.32;4.72;;;23.30;99.90;;;;;;5104300;27;45184;-78
2023/08/19 10:45:03;;;;;;;3.92;2.95;;;23.30;99.90;;;;;;5105721;27;45450;-78
2023/08/19 10:47:31;;;;;;;6.82;4.05;;;23.30;99.90;;;;;;5108036;27;45332;-78
2023/08/19 10:50:01;;;;;;;6.68;4.15;;;23.30;99.90;;;;;;5107444;27;45548;-78
2023/08/19 10:52:28;;;;;;;4.88;3.17;;;23.30;99.90;;;;;;5110498;27;46194;-78
2023/08/19 10:54:57;;;;;;;7.10;4.10;;;23.30;99.90;;;;;;5108154;27;45205;-78
2023/08/19 10:57:26;;;;;;;10.27;4.47;;;23.30;99.90;;;;;;5107470;27;48237;-78
2023/08/19 10:59:56;;;;;;;4.00;3.53;;;23.30;99.90;;;;;;5107680;27;45183;-78
2023/08/19 11:02:23;;;;;;;5.93;4.20;;;23.30;99.90;;;;;;5108030;27;44997;-78
2023/08/19 11:04:52;;;;;;;5.22;3.22;;;23.30;99.90;;;;;;5107921;27;45233;-78
2023/08/19 11:07:19;;;;;;;4.38;3.63;;;23.20;99.90;;;;;;5099460;27;45468;-78
2023/08/19 11:09:47;;;;;;;4.72;3.67;;;23.30;99.90;;;;;;5107584;27;45280;-78
2023/08/19 11:12:17;;;;;;;5.38;3.35;;;23.30;99.90;;;;;;5107669;27;45194;-78
2023/08/19 11:14:47;;;;;;;7.20;4.55;;;23.20;99.90;;;;;;5104581;27;45438;-77
2023/08/19 11:17:14;;;;;;;6.35;3.63;;;23.30;99.90;;;;;;5106875;27;46672;-78
2023/08/19 11:19:41;;;;;;;3.63;3.00;;;23.30;99.90;;;;;;5107903;27;45408;-78
2023/08/19 11:22:12;;;;;;;5.78;3.60;;;23.30;99.90;;;;;;5107717;27;45107;-78
2023/08/19 11:24:40;;;;;;;5.60;3.72;;;23.30;99.90;;;;;;5107821;27;45415;-78
2023/08/19 11:27:07;;;;;;;6.85;4.68;;;23.30;99.90;;;;;;5107024;27;46415;-77
2023/08/19 11:29:34;;;;;;;2.97;2.60;;;23.30;99.90;;;;;;5107370;27;45109;-78
2023/08/19 11:32:01;;;;;;;9.13;3.17;;;23.30;99.90;;;;;;5107219;27;45076;-78
2023/08/19 11:34:29;;;;;;;5.05;3.58;;;23.40;99.90;;;;;;5106993;27;45100;-78
2023/08/19 11:36:56;;;;;;;5.40;3.78;;;23.40;99.90;;;;;;5106734;27;47520;-78
2023/08/19 11:39:24;;;;;;;7.32;4.05;;;23.50;99.90;;;;;;5107277;27;45257;-78
2023/08/19 11:41:51;;;;;;;6.18;4.03;;;23.50;99.90;;;;;;5107119;27;45276;-78
2023/08/19 11:44:22;;;;;;;7.70;4.38;;;23.60;99.90;;;;;;5108437;27;45124;-78
2023/08/19 11:46:54;;;;;;;5.10;4.45;;;23.60;99.90;;;;;;5095557;27;48186;-78
2023/08/19 11:49:21;;;;;;;8.55;4.07;;;23.60;99.90;;;;;;5098539;27;45170;-77
2023/08/19 11:51:48;;;;;;;5.50;4.30;;;23.60;99.90;;;;;;5095706;27;45131;-78
2023/08/19 11:54:15;;;;;;;5.22;4.57;;;23.50;99.90;;;;;;5105900;27;45051;-77
2023/08/19 11:56:47;;;;;;;5.72;4.30;;;23.60;99.90;;;;;;5094076;27;47901;-78
2023/08/19 11:59:14;;;;;;;8.50;4.93;;;23.50;99.90;;;;;;5106065;27;45138;-78
2023/08/19 12:01:41;;;;;;;12.43;6.00;;;23.60;99.90;;;;;;5106289;27;45262;-78
2023/08/19 12:04:11;;;;;;;7.80;5.57;;;23.60;99.90;;;;;;5106711;27;45441;-78
2023/08/19 12:06:38;;;;;;;7.45;5.35;;;23.70;99.90;;;;;;5097831;27;48152;-77
2023/08/19 12:09:06;;;;;;;6.75;4.72;;;23.60;99.90;;;;;;5097810;27;45874;-77
2023/08/19 12:11:34;;;;;;;7.15;4.75;;;23.60;99.90;;;;;;5105113;27;45263;-77
2023/08/19 12:14:02;;;;;;;6.95;5.10;;;23.60;99.90;;;;;;5103720;27;45292;-78
2023/08/19 12:16:29;;;;;;;7.03;5.13;;;23.60;99.90;;;;;;5103503;27;47356;-77
2023/08/19 12:18:58;;;;;;;13.15;7.10;;;23.60;99.90;;;;;;5106217;27;45211;-77
2023/08/19 12:21:25;;;;;;;5.97;4.80;;;23.70;99.90;;;;;;5106219;27;45187;-77
2023/08/19 12:23:52;;;;;;;9.05;4.85;;;23.70;99.90;;;;;;5106004;27;45306;-78
2023/08/19 12:26:19;;;;;;;6.85;5.30;;;23.60;99.90;;;;;;5089100;27;47334;-77
2023/08/19 12:28:46;;;;;;;6.18;4.80;;;23.70;99.90;;;;;;5106101;27;45147;-77
2023/08/19 12:31:14;;;;;;;9.95;6.03;;;23.70;99.90;;;;;;5103343;27;45118;-78
2023/08/19 12:33:41;;;;;;;7.22;5.63;;;23.70;99.90;;;;;;5102734;27;45194;-78
2023/08/19 12:36:08;;;;;;;7.13;5.47;;;23.80;99.90;;;;;;5105693;27;47350;-77
2023/08/19 12:38:35;;;;;;;7.60;5.40;;;23.70;99.90;;;;;;5104673;27;45252;-73
2023/08/19 12:41:02;;;;;;;6.80;5.35;;;23.70;99.90;;;;;;5085968;27;45154;-72
2023/08/19 12:43:29;;;;;;;11.80;5.45;;;23.70;99.90;;;;;;5090012;27;45455;-72
2023/08/19 12:45:56;;;;;;;10.48;5.57;;;23.70;99.90;;;;;;5091185;27;45263;-72
2023/08/19 12:48:25;;;;;;;7.32;5.20;;;23.70;99.90;;;;;;5092529;27;45283;-72